EDHI/XFW METAR and TAF weather

Enter ICAO airport designator
Station Type Date Time Source
EDHI METAR 2022/01/19 20:50 UTC NOAA

EDHI 192050Z AUTO 29014KT 9999 // BKN036/// OVC043/// 05/03 Q1013


Station Type Date Time Source
EDHI Decoded METAR 2022/01/19 20:50 UTC NOAA

Hamburg-Finkenwerder, Germany (EDHI) 53-32N 009-50E 13M
Jan 19, 2022 - 03:50 PM EST / 2022.01.19 2050 UTC
Wind: from the WNW (290 degrees) at 16 MPH (14 KT):0
Visibility: greater than 7 mile(s):0
Sky conditions: overcast
Temperature: 41 F (5 C)
Dew Point: 37 F (3 C)
Relative Humidity: 86%
Pressure (altimeter): 29.91 in. Hg (1013 hPa)
ob: EDHI 192050Z AUTO 29014KT 9999 // BKN036/// OVC043/// 05/03 Q1013
cycle: 21

Station Type Date Time Source
EDHI TAF 2010/02/22 14:20 UTC NOAA

METAR EDHI 221420Z 17005KT 9999 BKN030 05/02 Q0989

Example: see airport list